Capt. Gregory Smith — WDC6542 — position and weather

sailwx.info

Track history (hours):
 
Tides and Currents Weather Stations Pressure Air Temp Water Temp Dewpoint Dewpoint Depression Visibility Wind Speed Wind Dir Waves Ship Positions

Capt. Gregory Smith

Owner: American Commercial Lines LLC, Jeffersonville, IN. More information available from US FCC via Universal Licensing System and Coast Guard Vessel Documentation Center.

Last reported at 2018-Feb-20 06:58 UTC. Time now 2018-Feb-23 20:15 UTC.
Position N 32°40' W 091°07'.

Length 55 m; draft 3.4 m.

Type: Towing. MMSI: 367057690.

Date/timePositionNaut miles runAvg speedWind from/ knotsBaromVisibWave heightAir tempDewpointWater temp
2018-Feb-20 06:58N 32°40' W 091°07'3 3.5
2018-Feb-20 06:07N 32°38' W 091°09'0 3.7
2018-Feb-20 06:01N 32°37' W 091°09'2 3.8
2018-Feb-20 05:31N 32°36' W 091°08'2 3.8
2018-Feb-20 05:01N 32°34' W 091°06'2 3.9
2018-Feb-20 04:29N 32°32' W 091°06'2 4.5
2018-Feb-20 04:00N 32°30' W 091°07'2 4.1
2018-Feb-20 03:30N 32°28' W 091°06'2 5.0
2018-Feb-20 03:01N 32°27' W 091°04'2 4.7
2018-Feb-20 02:30N 32°26' W 091°01'2 4.2
2018-Feb-20 02:00N 32°25' W 090°60'2 4.9
2018-Feb-20 01:31N 32°22' W 091°00'2 3.5
2018-Feb-20 01:00N 32°21' W 090°59'2 4.8
2018-Feb-20 00:31N 32°21' W 090°56'2 3.7
2018-Feb-19 23:59N 32°20' W 090°54'2 4.2
2018-Feb-19 23:30N 32°18' W 090°56'2 4.4
2018-Feb-19 23:00N 32°16' W 090°57'2 4.1
2018-Feb-19 22:31N 32°15' W 090°59'2 4.2
2018-Feb-19 22:00N 32°13' W 090°59'2 4.3
2018-Feb-19 21:29N 32°11' W 090°60'2 4.2
2018-Feb-19 21:00N 32°09' W 091°00'2 3.7
2018-Feb-19 20:30N 32°07' W 091°02'3 4.4
2018-Feb-19 19:47N 32°08' W 091°05'1 4.4
2018-Feb-19 19:30N 32°07' W 091°07'5 1.9
2018-Feb-19 16:59N 32°04' W 091°03'  
2018-Feb-12 08:00N 31°60' W 091°05'6 6.8
2018-Feb-12 07:04N 32°06' W 091°06'0 8.2
2018-Feb-12 07:01N 32°06' W 091°06'1 2.9
2018-Feb-12 06:30N 32°08' W 091°06'3 5.1
2018-Feb-12 06:00N 32°07' W 091°03'3 6.4
2018-Feb-12 05:31N 32°10' W 091°00'4 8.4
2018-Feb-12 05:01N 32°14' W 090°59'4 7.7
2018-Feb-12 04:30N 32°17' W 090°57'4 7.3
2018-Feb-12 04:01N 32°20' W 090°54'2 3.7
2018-Feb-12 03:31N 32°21' W 090°56'4 7.4
2018-Feb-12 03:01N 32°21' W 091°00'4 7.4
2018-Feb-12 02:30N 32°25' W 090°60'4 7.7
2018-Feb-12 02:01N 32°27' W 091°04'4 7.3
2018-Feb-12 01:30N 32°29' W 091°07'4 8.0
2018-Feb-12 01:00N 32°33' W 091°06'4 7.4
2018-Feb-12 00:31N 32°36' W 091°09'4 7.5
2018-Feb-12 00:01N 32°40' W 091°08'  
Track history (hours):
 
Tides and Currents Weather Stations Pressure Air Temp Water Temp Dewpoint Dewpoint Depression Visibility Wind Speed Wind Dir Waves Ship Positions

Capt. Gregory Smith

Owner: American Commercial Lines LLC, Jeffersonville, IN. More information available from US FCC via Universal Licensing System and Coast Guard Vessel Documentation Center.

Last reported at 2018-Feb-20 06:58 UTC. Time now 2018-Feb-23 20:15 UTC.
Position N 32°40' W 091°07'.

Length 55 m; draft 3.4 m.

Type: Towing. MMSI: 367057690.

Date/timePositionNaut miles runAvg speedWind from/ knotsBaromVisibWave heightAir tempDewpointWater temp
2018-Feb-20 06:58N 32°40' W 091°07'3 3.5
2018-Feb-20 06:07N 32°38' W 091°09'0 3.7
2018-Feb-20 06:01N 32°37' W 091°09'2 3.8
2018-Feb-20 05:31N 32°36' W 091°08'2 3.8
2018-Feb-20 05:01N 32°34' W 091°06'2 3.9
2018-Feb-20 04:29N 32°32' W 091°06'2 4.5
2018-Feb-20 04:00N 32°30' W 091°07'2 4.1
2018-Feb-20 03:30N 32°28' W 091°06'2 5.0
2018-Feb-20 03:01N 32°27' W 091°04'2 4.7
2018-Feb-20 02:30N 32°26' W 091°01'2 4.2
2018-Feb-20 02:00N 32°25' W 090°60'2 4.9
2018-Feb-20 01:31N 32°22' W 091°00'2 3.5
2018-Feb-20 01:00N 32°21' W 090°59'2 4.8
2018-Feb-20 00:31N 32°21' W 090°56'2 3.7
2018-Feb-19 23:59N 32°20' W 090°54'2 4.2
2018-Feb-19 23:30N 32°18' W 090°56'2 4.4
2018-Feb-19 23:00N 32°16' W 090°57'2 4.1
2018-Feb-19 22:31N 32°15' W 090°59'2 4.2
2018-Feb-19 22:00N 32°13' W 090°59'2 4.3
2018-Feb-19 21:29N 32°11' W 090°60'2 4.2
2018-Feb-19 21:00N 32°09' W 091°00'2 3.7
2018-Feb-19 20:30N 32°07' W 091°02'3 4.4
2018-Feb-19 19:47N 32°08' W 091°05'1 4.4
2018-Feb-19 19:30N 32°07' W 091°07'5 1.9
2018-Feb-19 16:59N 32°04' W 091°03'  
2018-Feb-12 08:00N 31°60' W 091°05'6 6.8
2018-Feb-12 07:04N 32°06' W 091°06'0 8.2
2018-Feb-12 07:01N 32°06' W 091°06'1 2.9
2018-Feb-12 06:30N 32°08' W 091°06'3 5.1
2018-Feb-12 06:00N 32°07' W 091°03'3 6.4
2018-Feb-12 05:31N 32°10' W 091°00'4 8.4
2018-Feb-12 05:01N 32°14' W 090°59'4 7.7
2018-Feb-12 04:30N 32°17' W 090°57'4 7.3
2018-Feb-12 04:01N 32°20' W 090°54'2 3.7
2018-Feb-12 03:31N 32°21' W 090°56'4 7.4
2018-Feb-12 03:01N 32°21' W 091°00'4 7.4
2018-Feb-12 02:30N 32°25' W 090°60'4 7.7
2018-Feb-12 02:01N 32°27' W 091°04'4 7.3
2018-Feb-12 01:30N 32°29' W 091°07'4 8.0
2018-Feb-12 01:00N 32°33' W 091°06'4 7.4
2018-Feb-12 00:31N 32°36' W 091°09'4 7.5
2018-Feb-12 00:01N 32°40' W 091°08'  

Dump ship's entire track history